createdAt,value
2022-12-31T00:01:10.876Z,9.16
2022-12-31T00:03:57.721Z,9.10
2022-12-31T00:06:43.584Z,9.06
2022-12-31T00:09:29.544Z,8.92
2022-12-31T00:12:15.324Z,9.07
2022-12-31T00:15:01.099Z,9.02
2022-12-31T00:17:47.106Z,8.96
2022-12-31T00:20:33.207Z,9.02
2022-12-31T00:23:19.466Z,8.87
2022-12-31T00:26:11.917Z,8.97
2022-12-31T00:28:58.993Z,8.95
2022-12-31T00:31:46.282Z,8.96
2022-12-31T00:34:32.102Z,8.93
2022-12-31T00:37:17.948Z,8.83
2022-12-31T00:40:04.681Z,8.81
2022-12-31T00:42:51.007Z,8.82
2022-12-31T00:45:37.013Z,8.82
2022-12-31T00:48:23.135Z,8.83
2022-12-31T00:51:11.672Z,8.78
2022-12-31T00:53:57.820Z,8.82
2022-12-31T00:56:43.711Z,8.76
2022-12-31T00:59:29.628Z,8.77
2022-12-31T01:02:15.574Z,8.73
2022-12-31T01:05:01.937Z,8.71
2022-12-31T01:07:47.812Z,8.73
2022-12-31T01:10:52.251Z,8.70
2022-12-31T01:13:38.167Z,8.67
2022-12-31T01:16:26.753Z,8.72
2022-12-31T01:19:34.429Z,8.70
2022-12-31T01:22:20.229Z,8.69
2022-12-31T01:25:06.795Z,8.66
2022-12-31T01:27:52.688Z,8.68
2022-12-31T01:30:40.168Z,8.67
2022-12-31T01:33:26.243Z,8.67
2022-12-31T01:36:21.857Z,8.68
2022-12-31T01:39:11.134Z,8.65
2022-12-31T01:41:58.061Z,8.69
2022-12-31T01:44:55.434Z,8.62
2022-12-31T01:47:49.066Z,8.58
2022-12-31T01:50:36.494Z,8.68
2022-12-31T01:53:22.416Z,8.68
2022-12-31T01:56:08.232Z,8.67
2022-12-31T01:58:56.032Z,8.68
2022-12-31T02:01:42.540Z,8.67
2022-12-31T02:04:29.154Z,8.71
2022-12-31T02:07:15.181Z,8.59
2022-12-31T02:10:01.365Z,8.65
2022-12-31T02:12:48.307Z,8.68
2022-12-31T02:15:40.326Z,8.68
2022-12-31T02:18:38.773Z,8.62
2022-12-31T02:21:45.465Z,8.58
2022-12-31T02:24:58.990Z,8.58
2022-12-31T02:27:49.740Z,8.53
2022-12-31T02:30:37.411Z,8.53
2022-12-31T02:33:30.142Z,8.50
2022-12-31T02:36:21.132Z,8.49
2022-12-31T02:39:07.816Z,8.51
2022-12-31T02:41:53.983Z,8.37
2022-12-31T02:44:41.874Z,8.29
2022-12-31T02:47:42.758Z,8.35
2022-12-31T02:51:00.637Z,8.29
2022-12-31T02:53:53.057Z,8.33
2022-12-31T02:57:14.154Z,8.30
2022-12-31T03:00:33.219Z,8.19
2022-12-31T03:03:20.629Z,8.21
2022-12-31T03:06:08.415Z,8.21
2022-12-31T03:09:12.821Z,8.17
2022-12-31T03:12:18.054Z,8.17
2022-12-31T03:15:06.779Z,8.12
2022-12-31T03:18:11.996Z,8.08
2022-12-31T03:21:16.229Z,8.05
2022-12-31T03:24:20.955Z,8.05
2022-12-31T03:27:06.751Z,8.01
2022-12-31T03:29:52.901Z,8.02
2022-12-31T03:32:39.139Z,7.99
2022-12-31T03:35:26.988Z,7.97
2022-12-31T03:38:13.769Z,7.96
2022-12-31T03:40:59.716Z,7.85
2022-12-31T03:43:45.805Z,7.92
2022-12-31T03:46:31.643Z,7.95
2022-12-31T03:49:17.612Z,7.90
2022-12-31T03:52:03.650Z,7.94
2022-12-31T03:54:49.354Z,7.91
2022-12-31T03:57:35.255Z,7.84
2022-12-31T04:00:21.922Z,7.95
2022-12-31T04:03:08.096Z,7.92
2022-12-31T04:05:55.551Z,7.96
2022-12-31T04:08:41.357Z,7.90
2022-12-31T04:11:27.377Z,7.90
2022-12-31T04:14:13.171Z,7.87
2022-12-31T04:16:59.296Z,7.93
2022-12-31T04:19:45.270Z,7.86
2022-12-31T04:22:31.066Z,7.89
2022-12-31T04:25:16.829Z,7.92
2022-12-31T04:28:03.483Z,7.89
2022-12-31T04:30:49.458Z,7.87
2022-12-31T04:33:35.752Z,7.91
2022-12-31T04:36:22.034Z,7.88
2022-12-31T04:39:08.060Z,7.93
2022-12-31T04:41:54.398Z,7.85
2022-12-31T04:44:40.367Z,7.87
2022-12-31T04:47:26.367Z,7.85
2022-12-31T04:50:12.277Z,7.83
2022-12-31T04:52:57.962Z,7.80
2022-12-31T04:55:45.413Z,7.74
2022-12-31T04:58:31.684Z,7.71
2022-12-31T05:01:17.988Z,7.76
2022-12-31T05:04:04.706Z,7.75
2022-12-31T05:06:50.803Z,7.72
2022-12-31T05:09:36.868Z,7.69
2022-12-31T05:12:22.959Z,7.74
2022-12-31T05:15:09.415Z,7.72
2022-12-31T05:17:55.299Z,7.69
2022-12-31T05:20:41.219Z,7.67
2022-12-31T05:23:27.477Z,7.68
2022-12-31T05:26:13.515Z,7.60
2022-12-31T05:29:00.510Z,7.63
2022-12-31T05:31:46.215Z,7.66
2022-12-31T05:34:32.081Z,7.61
2022-12-31T05:37:18.119Z,7.61
2022-12-31T05:40:04.735Z,7.60
2022-12-31T05:42:50.899Z,7.59
2022-12-31T05:45:37.186Z,7.57
2022-12-31T05:48:23.096Z,7.60
2022-12-31T05:51:08.826Z,7.61
2022-12-31T05:53:54.652Z,7.58
2022-12-31T05:56:40.973Z,7.62
2022-12-31T05:59:26.855Z,7.63
2022-12-31T06:02:12.835Z,7.53
2022-12-31T06:04:58.461Z,7.57
2022-12-31T06:07:44.574Z,7.57
2022-12-31T06:10:30.401Z,7.62
2022-12-31T06:13:16.485Z,7.56
2022-12-31T06:16:07.351Z,7.56
2022-12-31T06:18:53.737Z,7.56
2022-12-31T06:21:40.040Z,7.54
2022-12-31T06:24:26.624Z,7.62
2022-12-31T06:27:12.924Z,7.62
2022-12-31T06:29:59.016Z,7.59
2022-12-31T06:32:45.875Z,7.48
2022-12-31T06:35:31.898Z,7.62
2022-12-31T06:38:17.818Z,7.55
2022-12-31T06:41:04.839Z,7.61
2022-12-31T06:43:50.665Z,7.56
2022-12-31T06:46:36.706Z,7.57
2022-12-31T06:49:22.562Z,7.62
2022-12-31T06:52:08.515Z,7.60
2022-12-31T06:54:54.870Z,7.62
2022-12-31T06:57:41.258Z,7.61
2022-12-31T07:00:27.831Z,7.66
2022-12-31T07:03:19.623Z,7.67
2022-12-31T07:06:28.371Z,7.44
2022-12-31T07:09:40.249Z,7.66
2022-12-31T07:12:38.214Z,7.76
2022-12-31T07:15:33.338Z,7.75
2022-12-31T07:18:25.634Z,7.78
2022-12-31T07:21:13.764Z,7.79
2022-12-31T07:24:00.027Z,7.83
2022-12-31T07:26:58.038Z,7.86
2022-12-31T07:30:14.468Z,7.84
2022-12-31T07:33:15.526Z,8.00
2022-12-31T07:36:26.380Z,7.98
2022-12-31T07:39:25.876Z,7.98
2022-12-31T07:42:37.801Z,7.93
2022-12-31T07:45:42.288Z,8.16
2022-12-31T07:48:29.301Z,8.21
2022-12-31T07:51:15.765Z,8.24
2022-12-31T07:54:01.682Z,8.34
2022-12-31T07:56:48.273Z,8.39
2022-12-31T07:59:51.921Z,8.32
2022-12-31T08:02:57.168Z,8.40
2022-12-31T08:06:24.929Z,8.50
2022-12-31T08:09:37.341Z,8.55
2022-12-31T08:12:23.638Z,8.63
2022-12-31T08:15:15.044Z,8.63
2022-12-31T08:18:01.082Z,8.71
2022-12-31T08:21:10.761Z,8.76
2022-12-31T08:24:22.633Z,8.78
2022-12-31T08:27:28.420Z,8.79
2022-12-31T08:30:16.844Z,8.89
2022-12-31T08:33:11.345Z,9.01
2022-12-31T08:36:16.216Z,9.07
2022-12-31T08:39:13.963Z,9.03
2022-12-31T08:42:03.517Z,9.07
2022-12-31T08:45:12.297Z,9.06
2022-12-31T08:48:35.243Z,9.13
2022-12-31T08:51:23.863Z,9.21
2022-12-31T08:54:13.365Z,9.22
2022-12-31T08:57:13.427Z,9.29
2022-12-31T09:00:07.485Z,9.35
2022-12-31T09:03:31.182Z,9.33
2022-12-31T09:07:00.332Z,9.39
2022-12-31T09:09:46.159Z,9.51
2022-12-31T09:12:35.011Z,9.57
2022-12-31T09:15:21.001Z,9.67
2022-12-31T09:18:08.863Z,9.78
2022-12-31T09:20:54.864Z,9.82
2022-12-31T09:23:41.299Z,9.92
2022-12-31T09:26:49.012Z,9.88
2022-12-31T09:29:41.556Z,10.04
2022-12-31T09:32:40.433Z,10.08
2022-12-31T09:35:26.387Z,10.16
2022-12-31T09:38:28.898Z,10.16
2022-12-31T09:41:36.949Z,10.31
2022-12-31T09:45:10.340Z,10.33
2022-12-31T09:48:36.241Z,10.31
2022-12-31T09:51:33.149Z,10.44
2022-12-31T09:54:22.028Z,10.57
2022-12-31T09:57:08.069Z,10.59
2022-12-31T10:00:11.062Z,10.62
2022-12-31T10:03:00.111Z,10.74
2022-12-31T10:05:53.173Z,10.71
2022-12-31T10:09:06.976Z,10.80
2022-12-31T10:12:20.624Z,10.92
2022-12-31T10:15:34.711Z,10.92
2022-12-31T10:18:59.764Z,10.91
2022-12-31T10:22:00.892Z,11.06
2022-12-31T10:25:20.693Z,11.12
2022-12-31T10:28:30.973Z,11.22
2022-12-31T10:31:16.913Z,11.34
2022-12-31T10:34:13.699Z,11.39
2022-12-31T10:37:20.462Z,11.36
2022-12-31T10:40:09.432Z,11.53
2022-12-31T10:42:55.202Z,11.66
2022-12-31T10:46:19.144Z,11.68
2022-12-31T10:49:24.209Z,11.79
2022-12-31T10:52:28.918Z,11.88
2022-12-31T10:55:39.298Z,11.93
2022-12-31T10:58:52.791Z,11.97
2022-12-31T11:01:57.273Z,12.01
2022-12-31T11:05:24.132Z,12.02
2022-12-31T11:08:33.900Z,12.09
2022-12-31T11:11:19.786Z,12.27
2022-12-31T11:14:23.828Z,12.29
2022-12-31T11:17:16.593Z,12.37
2022-12-31T11:20:27.557Z,12.41
2022-12-31T11:23:37.674Z,12.44
2022-12-31T11:26:32.700Z,12.54
2022-12-31T11:29:37.683Z,12.54
2022-12-31T11:32:32.464Z,12.70
2022-12-31T11:35:41.598Z,12.64
2022-12-31T11:38:41.256Z,12.70
2022-12-31T11:41:44.003Z,12.76
2022-12-31T11:44:48.960Z,12.72
2022-12-31T11:48:29.817Z,12.73
2022-12-31T11:51:28.237Z,12.92
2022-12-31T11:54:24.908Z,12.93
2022-12-31T11:57:16.663Z,12.99
2022-12-31T12:00:23.835Z,12.92
2022-12-31T12:03:11.008Z,12.99
2022-12-31T12:05:57.684Z,13.08
2022-12-31T12:08:44.561Z,13.13
2022-12-31T12:11:33.300Z,13.07
2022-12-31T12:14:20.175Z,13.19
2022-12-31T12:17:15.789Z,13.06
2022-12-31T12:20:05.010Z,13.28
2022-12-31T12:22:53.497Z,13.32
2022-12-31T12:25:42.277Z,13.36
2022-12-31T12:28:30.854Z,13.47
2022-12-31T12:31:22.728Z,13.48
2022-12-31T12:34:25.119Z,13.50
2022-12-31T12:37:23.945Z,13.58
2022-12-31T12:40:21.819Z,13.72
2022-12-31T12:43:23.248Z,13.76
2022-12-31T12:46:32.140Z,13.84
2022-12-31T12:49:29.819Z,14.00
2022-12-31T12:52:22.193Z,14.15
2022-12-31T12:55:17.159Z,14.20
2022-12-31T12:58:26.571Z,14.43
2022-12-31T13:01:37.945Z,14.56
2022-12-31T13:04:34.591Z,15.85
2022-12-31T13:07:45.722Z,18.07
2022-12-31T13:10:42.400Z,21.25
2022-12-31T13:13:38.114Z,24.25
2022-12-31T13:16:42.604Z,26.70
2022-12-31T13:19:34.216Z,28.77
2022-12-31T13:22:27.607Z,30.62
2022-12-31T13:25:43.249Z,31.65
2022-12-31T13:28:30.910Z,32.51
2022-12-31T13:31:30.294Z,32.60
2022-12-31T13:34:21.488Z,31.86
2022-12-31T13:37:37.819Z,31.99
2022-12-31T13:40:46.670Z,31.34
2022-12-31T13:43:38.476Z,30.10
2022-12-31T13:46:44.010Z,28.58
2022-12-31T13:49:34.912Z,27.14
2022-12-31T13:52:36.814Z,25.88
2022-12-31T13:55:31.636Z,24.73
2022-12-31T13:58:31.704Z,23.71
2022-12-31T14:01:32.093Z,22.90
2022-12-31T14:04:59.508Z,22.04
2022-12-31T14:07:56.170Z,21.26
2022-12-31T14:11:05.509Z,20.74
2022-12-31T14:14:00.376Z,20.28
2022-12-31T14:16:53.964Z,19.85
2022-12-31T14:20:01.614Z,19.00
2022-12-31T14:23:20.078Z,19.02
2022-12-31T14:26:07.556Z,18.61
2022-12-31T14:29:09.231Z,18.29
2022-12-31T14:32:03.545Z,18.02
2022-12-31T14:34:53.015Z,17.80
2022-12-31T14:37:41.854Z,17.55
2022-12-31T14:40:51.162Z,17.32
2022-12-31T14:43:58.172Z,17.03
2022-12-31T14:47:00.157Z,16.81
2022-12-31T14:49:58.143Z,16.56
2022-12-31T14:52:49.170Z,16.32
2022-12-31T14:55:37.101Z,16.20
2022-12-31T14:58:29.802Z,16.14
2022-12-31T15:01:15.910Z,16.00
2022-12-31T15:04:01.679Z,15.82
2022-12-31T15:06:55.319Z,15.71
2022-12-31T15:09:54.552Z,15.55
2022-12-31T15:12:58.841Z,15.41
2022-12-31T15:16:08.442Z,15.22
2022-12-31T15:19:19.364Z,15.14
2022-12-31T15:22:17.377Z,15.00
2022-12-31T15:25:04.644Z,14.92
2022-12-31T15:27:50.705Z,14.56
2022-12-31T15:30:44.925Z,14.57
2022-12-31T15:33:40.233Z,14.47
2022-12-31T15:36:29.723Z,14.54
2022-12-31T15:39:16.924Z,14.45
2022-12-31T15:42:36.672Z,14.33
2022-12-31T15:45:17.286Z,14.20
2022-12-31T15:48:08.574Z,14.13
2022-12-31T15:50:58.086Z,14.03
2022-12-31T15:53:52.449Z,13.98
2022-12-31T15:56:45.322Z,13.90
2022-12-31T15:59:31.780Z,13.79
2022-12-31T16:02:23.812Z,13.65
2022-12-31T16:05:25.337Z,13.60
2022-12-31T16:08:19.848Z,13.52
2022-12-31T16:11:07.988Z,13.48
2022-12-31T16:13:54.989Z,13.38
2022-12-31T16:16:51.825Z,13.20
2022-12-31T16:19:46.249Z,13.21
2022-12-31T16:22:39.670Z,13.03
2022-12-31T16:25:31.114Z,13.03
2022-12-31T16:28:28.410Z,12.91
2022-12-31T16:31:17.715Z,12.82
2022-12-31T16:34:12.841Z,12.69
2022-12-31T16:37:07.596Z,12.60
2022-12-31T16:39:56.736Z,12.51
2022-12-31T16:42:44.579Z,12.30
2022-12-31T16:45:35.853Z,12.29
2022-12-31T16:48:22.130Z,12.20
2022-12-31T16:51:16.797Z,12.03
2022-12-31T16:54:03.704Z,12.08
2022-12-31T16:56:50.053Z,12.00
2022-12-31T16:59:41.647Z,11.99
2022-12-31T17:02:36.515Z,11.79
2022-12-31T17:05:26.410Z,11.85
2022-12-31T17:08:29.669Z,11.77
2022-12-31T17:11:31.362Z,11.73
2022-12-31T17:14:20.060Z,11.70
2022-12-31T17:17:07.584Z,11.64
2022-12-31T17:19:58.528Z,11.49
2022-12-31T17:22:44.820Z,11.56
2022-12-31T17:25:32.896Z,11.39
2022-12-31T17:28:24.262Z,11.47
2022-12-31T17:31:32.139Z,11.39
2022-12-31T17:34:21.709Z,11.33
2022-12-31T17:37:11.577Z,11.36
2022-12-31T17:40:40.583Z,11.26
2022-12-31T17:43:11.540Z,11.23
2022-12-31T17:45:57.355Z,11.09
2022-12-31T17:48:45.192Z,11.13
2022-12-31T17:51:30.963Z,11.01
2022-12-31T17:54:17.643Z,11.03
2022-12-31T17:57:03.886Z,10.87
2022-12-31T17:59:49.933Z,10.93
2022-12-31T18:02:35.966Z,10.90
2022-12-31T18:05:23.712Z,10.90
2022-12-31T18:08:09.546Z,10.87
2022-12-31T18:10:55.732Z,10.76
2022-12-31T18:13:41.895Z,10.77
2022-12-31T18:16:28.172Z,10.74
2022-12-31T18:19:37.984Z,10.72
2022-12-31T18:22:21.817Z,10.65
2022-12-31T18:25:10.293Z,10.67
2022-12-31T18:27:56.133Z,10.56
2022-12-31T18:30:42.469Z,10.55
2022-12-31T18:33:34.165Z,10.56
2022-12-31T18:36:22.057Z,10.48
2022-12-31T18:39:08.177Z,10.40
2022-12-31T18:41:54.290Z,10.29
2022-12-31T18:44:41.094Z,10.41
2022-12-31T18:47:26.948Z,10.33
2022-12-31T18:50:16.998Z,10.34
2022-12-31T18:53:03.053Z,10.10
2022-12-31T18:55:54.556Z,10.27
2022-12-31T18:58:41.104Z,10.22
2022-12-31T19:01:32.495Z,10.05
2022-12-31T19:04:27.242Z,10.11
2022-12-31T19:07:14.237Z,10.05
2022-12-31T19:10:00.435Z,9.91
2022-12-31T19:12:46.523Z,9.88
2022-12-31T19:15:42.534Z,9.96
2022-12-31T19:18:28.336Z,9.92
2022-12-31T19:21:19.813Z,9.84
2022-12-31T19:24:20.500Z,9.79
2022-12-31T19:27:06.415Z,9.80
2022-12-31T19:29:52.185Z,9.69
2022-12-31T19:32:37.939Z,9.63
2022-12-31T19:35:24.545Z,9.72
2022-12-31T19:38:25.099Z,9.62
2022-12-31T19:41:19.190Z,9.60
2022-12-31T19:44:05.438Z,9.60
2022-12-31T19:46:51.275Z,9.53
2022-12-31T19:49:37.277Z,9.48
2022-12-31T19:52:23.049Z,9.49
2022-12-31T19:55:13.019Z,9.49
2022-12-31T19:57:58.937Z,9.41
2022-12-31T20:00:51.567Z,9.33
2022-12-31T20:03:40.888Z,9.26
2022-12-31T20:06:26.663Z,9.38
2022-12-31T20:09:12.705Z,9.30
2022-12-31T20:11:59.007Z,9.13
2022-12-31T20:14:44.862Z,9.15
2022-12-31T20:17:31.116Z,9.21
2022-12-31T20:20:17.391Z,9.21
2022-12-31T20:23:03.591Z,9.13
2022-12-31T20:26:01.962Z,9.09
2022-12-31T20:28:48.157Z,9.07
2022-12-31T20:31:34.456Z,9.05
2022-12-31T20:34:20.392Z,8.84
2022-12-31T20:37:06.118Z,8.89
2022-12-31T20:39:52.207Z,8.87
2022-12-31T20:42:40.156Z,8.90
2022-12-31T20:45:27.069Z,8.91
2022-12-31T20:48:13.761Z,8.72
2022-12-31T20:50:59.803Z,8.82
2022-12-31T20:53:51.440Z,8.71
2022-12-31T20:56:39.376Z,8.72
2022-12-31T20:59:27.480Z,8.67
2022-12-31T21:02:39.187Z,8.59
2022-12-31T21:05:29.030Z,8.53
2022-12-31T21:08:16.632Z,8.48
2022-12-31T21:11:03.193Z,8.27
2022-12-31T21:13:49.588Z,8.36
2022-12-31T21:16:38.061Z,8.33
2022-12-31T21:19:24.328Z,8.34
2022-12-31T21:22:10.528Z,8.33
2022-12-31T21:24:56.510Z,8.25
2022-12-31T21:27:42.194Z,8.23
2022-12-31T21:30:28.015Z,8.10
2022-12-31T21:33:13.936Z,8.15
2022-12-31T21:36:04.545Z,8.14
2022-12-31T21:38:51.326Z,8.16
2022-12-31T21:41:52.673Z,8.16
2022-12-31T21:44:38.402Z,8.12
2022-12-31T21:47:47.679Z,8.00
2022-12-31T21:50:34.332Z,8.00
2022-12-31T21:53:26.288Z,8.03
2022-12-31T21:56:18.218Z,7.95
2022-12-31T21:59:23.262Z,7.91
2022-12-31T22:02:28.982Z,7.91
2022-12-31T22:05:23.177Z,7.79
2022-12-31T22:08:11.298Z,7.79
2022-12-31T22:10:57.377Z,7.72
2022-12-31T22:13:43.068Z,7.73
2022-12-31T22:16:29.028Z,7.62
2022-12-31T22:19:14.773Z,7.60
2022-12-31T22:22:00.836Z,7.55
2022-12-31T22:24:46.678Z,7.53
2022-12-31T22:27:32.506Z,7.49
2022-12-31T22:30:18.610Z,7.43
2022-12-31T22:33:04.385Z,7.40
2022-12-31T22:36:05.352Z,7.30
2022-12-31T22:38:55.521Z,7.32
2022-12-31T22:41:41.736Z,7.28
2022-12-31T22:44:27.776Z,7.12
2022-12-31T22:47:13.631Z,7.15
2022-12-31T22:49:59.905Z,7.27
2022-12-31T22:52:45.862Z,7.17
2022-12-31T22:55:31.876Z,7.16
2022-12-31T22:58:19.874Z,7.19
2022-12-31T23:01:17.084Z,7.10
2022-12-31T23:04:04.038Z,7.14
2022-12-31T23:06:50.049Z,7.15
2022-12-31T23:09:54.588Z,7.07
2022-12-31T23:12:40.781Z,7.02
2022-12-31T23:15:45.184Z,6.93
2022-12-31T23:18:49.793Z,7.01
2022-12-31T23:21:55.052Z,6.90
2022-12-31T23:24:41.275Z,7.00
2022-12-31T23:27:27.511Z,7.02
2022-12-31T23:30:13.649Z,6.99
2022-12-31T23:32:59.582Z,6.99
2022-12-31T23:35:45.800Z,6.99
2022-12-31T23:38:31.771Z,6.95
2022-12-31T23:41:20.171Z,6.96
2022-12-31T23:44:06.312Z,6.99
2022-12-31T23:46:52.509Z,6.98
2022-12-31T23:49:38.252Z,6.96
2022-12-31T23:52:24.234Z,6.99
2022-12-31T23:55:10.160Z,6.93
2022-12-31T23:57:56.034Z,6.95
